sensor_id;sensor_type;location;lat;lon;timestamp;P1;durP1;ratioP1;P2;durP2;ratioP2
23072;SDS011;67971;51.046;3.732;2023-08-07T00:00:11;9.93;;;3.00;;
23072;SDS011;67971;51.046;3.732;2023-08-07T00:02:37;11.23;;;3.30;;
23072;SDS011;67971;51.046;3.732;2023-08-07T00:05:03;9.20;;;3.23;;
23072;SDS011;67971;51.046;3.732;2023-08-07T00:07:30;9.07;;;2.60;;
23072;SDS011;67971;51.046;3.732;2023-08-07T00:09:56;11.97;;;3.13;;
23072;SDS011;67971;51.046;3.732;2023-08-07T00:12:21;7.43;;;3.03;;
23072;SDS011;67971;51.046;3.732;2023-08-07T00:14:50;9.73;;;3.00;;
23072;SDS011;67971;51.046;3.732;2023-08-07T00:17:16;12.30;;;3.33;;
23072;SDS011;67971;51.046;3.732;2023-08-07T00:19:42;8.37;;;2.70;;
23072;SDS011;67971;51.046;3.732;2023-08-07T00:22:07;13.03;;;3.87;;
23072;SDS011;67971;51.046;3.732;2023-08-07T00:24:33;6.10;;;2.50;;
23072;SDS011;67971;51.046;3.732;2023-08-07T00:26:59;7.53;;;2.30;;
23072;SDS011;67971;51.046;3.732;2023-08-07T00:29:25;8.43;;;3.50;;
23072;SDS011;67971;51.046;3.732;2023-08-07T00:31:50;10.27;;;2.30;;
23072;SDS011;67971;51.046;3.732;2023-08-07T00:34:16;14.53;;;3.40;;
23072;SDS011;67971;51.046;3.732;2023-08-07T00:36:41;7.97;;;2.50;;
23072;SDS011;67971;51.046;3.732;2023-08-07T00:39:07;9.00;;;3.13;;
23072;SDS011;67971;51.046;3.732;2023-08-07T00:41:33;8.90;;;2.47;;
23072;SDS011;67971;51.046;3.732;2023-08-07T00:43:59;12.40;;;2.67;;
23072;SDS011;67971;51.046;3.732;2023-08-07T00:46:25;8.10;;;2.53;;
23072;SDS011;67971;51.046;3.732;2023-08-07T00:48:52;5.63;;;2.37;;
23072;SDS011;67971;51.046;3.732;2023-08-07T00:51:19;8.37;;;2.60;;
23072;SDS011;67971;51.046;3.732;2023-08-07T00:53:45;13.93;;;2.83;;
23072;SDS011;67971;51.046;3.732;2023-08-07T00:56:12;8.87;;;3.37;;
23072;SDS011;67971;51.046;3.732;2023-08-07T00:58:38;6.93;;;2.40;;
23072;SDS011;67971;51.046;3.732;2023-08-07T01:01:04;9.73;;;2.83;;
23072;SDS011;67971;51.046;3.732;2023-08-07T01:03:30;6.37;;;2.97;;
23072;SDS011;67971;51.046;3.732;2023-08-07T01:05:56;5.87;;;3.10;;
23072;SDS011;67971;51.046;3.732;2023-08-07T01:08:22;10.50;;;3.30;;
23072;SDS011;67971;51.046;3.732;2023-08-07T01:16:10;8.03;;;2.80;;
23072;SDS011;67971;51.046;3.732;2023-08-07T01:18:43;11.67;;;3.73;;
23072;SDS011;67971;51.046;3.732;2023-08-07T01:21:20;8.93;;;2.83;;
23072;SDS011;67971;51.046;3.732;2023-08-07T01:23:47;7.60;;;2.57;;
23072;SDS011;67971;51.046;3.732;2023-08-07T01:26:13;9.33;;;2.67;;
23072;SDS011;67971;51.046;3.732;2023-08-07T01:28:42;12.30;;;2.87;;
23072;SDS011;67971;51.046;3.732;2023-08-07T01:31:30;8.93;;;3.07;;
23072;SDS011;67971;51.046;3.732;2023-08-07T01:34:02;7.43;;;2.40;;
23072;SDS011;67971;51.046;3.732;2023-08-07T01:36:30;4.40;;;2.40;;
23072;SDS011;67971;51.046;3.732;2023-08-07T01:38:57;5.57;;;2.47;;
23072;SDS011;67971;51.046;3.732;2023-08-07T01:41:24;8.17;;;2.40;;
23072;SDS011;67971;51.046;3.732;2023-08-07T01:43:50;7.73;;;2.73;;
23072;SDS011;67971;51.046;3.732;2023-08-07T01:46:17;6.23;;;2.50;;
23072;SDS011;67971;51.046;3.732;2023-08-07T01:48:43;8.10;;;2.40;;
23072;SDS011;67971;51.046;3.732;2023-08-07T01:51:08;8.97;;;2.83;;
23072;SDS011;67971;51.046;3.732;2023-08-07T01:53:34;5.53;;;2.37;;
23072;SDS011;67971;51.046;3.732;2023-08-07T01:56:00;10.80;;;2.97;;
23072;SDS011;67971;51.046;3.732;2023-08-07T01:58:25;6.00;;;2.37;;
23072;SDS011;67971;51.046;3.732;2023-08-07T02:00:51;14.03;;;3.10;;
23072;SDS011;67971;51.046;3.732;2023-08-07T02:03:18;10.40;;;2.50;;
23072;SDS011;67971;51.046;3.732;2023-08-07T02:05:45;11.97;;;3.23;;
23072;SDS011;67971;51.046;3.732;2023-08-07T02:08:11;10.33;;;2.63;;
23072;SDS011;67971;51.046;3.732;2023-08-07T02:10:37;8.70;;;2.30;;
23072;SDS011;67971;51.046;3.732;2023-08-07T02:13:03;5.83;;;2.63;;
23072;SDS011;67971;51.046;3.732;2023-08-07T02:15:29;9.43;;;2.97;;
23072;SDS011;67971;51.046;3.732;2023-08-07T02:17:55;11.23;;;3.20;;
23072;SDS011;67971;51.046;3.732;2023-08-07T02:20:20;10.93;;;3.00;;
23072;SDS011;67971;51.046;3.732;2023-08-07T02:22:46;12.03;;;3.57;;
23072;SDS011;67971;51.046;3.732;2023-08-07T02:25:11;4.80;;;2.50;;
23072;SDS011;67971;51.046;3.732;2023-08-07T02:27:37;8.97;;;3.43;;
23072;SDS011;67971;51.046;3.732;2023-08-07T02:30:03;7.30;;;3.57;;
23072;SDS011;67971;51.046;3.732;2023-08-07T02:32:30;8.60;;;2.70;;
23072;SDS011;67971;51.046;3.732;2023-08-07T02:34:56;9.00;;;3.00;;
23072;SDS011;67971;51.046;3.732;2023-08-07T02:37:22;6.23;;;2.67;;
23072;SDS011;67971;51.046;3.732;2023-08-07T02:39:47;9.23;;;3.33;;
23072;SDS011;67971;51.046;3.732;2023-08-07T02:42:13;5.47;;;2.87;;
23072;SDS011;67971;51.046;3.732;2023-08-07T02:44:39;9.83;;;3.20;;
23072;SDS011;67971;51.046;3.732;2023-08-07T02:47:04;8.70;;;3.27;;
23072;SDS011;67971;51.046;3.732;2023-08-07T02:49:30;9.40;;;2.57;;
23072;SDS011;67971;51.046;3.732;2023-08-07T02:51:56;9.27;;;3.17;;
23072;SDS011;67971;51.046;3.732;2023-08-07T02:54:22;11.13;;;3.13;;
23072;SDS011;67971;51.046;3.732;2023-08-07T02:56:47;8.63;;;3.10;;
23072;SDS011;67971;51.046;3.732;2023-08-07T02:59:14;5.30;;;3.23;;
23072;SDS011;67971;51.046;3.732;2023-08-07T03:01:40;14.00;;;3.30;;
23072;SDS011;67971;51.046;3.732;2023-08-07T03:04:05;9.13;;;3.30;;
23072;SDS011;67971;51.046;3.732;2023-08-07T03:06:31;7.83;;;2.90;;
23072;SDS011;67971;51.046;3.732;2023-08-07T03:08:57;9.53;;;3.20;;
23072;SDS011;67971;51.046;3.732;2023-08-07T03:11:22;10.83;;;3.73;;
23072;SDS011;67971;51.046;3.732;2023-08-07T03:13:48;12.10;;;3.37;;
23072;SDS011;67971;51.046;3.732;2023-08-07T03:16:14;12.33;;;3.73;;
23072;SDS011;67971;51.046;3.732;2023-08-07T03:18:40;9.33;;;3.33;;
23072;SDS011;67971;51.046;3.732;2023-08-07T03:21:05;13.13;;;3.80;;
23072;SDS011;67971;51.046;3.732;2023-08-07T03:23:31;7.50;;;3.57;;
23072;SDS011;67971;51.046;3.732;2023-08-07T03:26:06;6.43;;;3.20;;
23072;SDS011;67971;51.046;3.732;2023-08-07T03:28:33;10.17;;;4.27;;
23072;SDS011;67971;51.046;3.732;2023-08-07T03:31:00;17.17;;;3.73;;
23072;SDS011;67971;51.046;3.732;2023-08-07T03:33:26;17.40;;;3.70;;
23072;SDS011;67971;51.046;3.732;2023-08-07T03:35:52;13.63;;;4.13;;
23072;SDS011;67971;51.046;3.732;2023-08-07T03:38:17;9.10;;;3.93;;
23072;SDS011;67971;51.046;3.732;2023-08-07T03:40:43;14.90;;;3.83;;
23072;SDS011;67971;51.046;3.732;2023-08-07T03:43:09;7.00;;;3.17;;
23072;SDS011;67971;51.046;3.732;2023-08-07T03:45:34;11.80;;;3.73;;
23072;SDS011;67971;51.046;3.732;2023-08-07T03:48:00;7.23;;;3.20;;
23072;SDS011;67971;51.046;3.732;2023-08-07T03:50:26;8.07;;;3.70;;
23072;SDS011;67971;51.046;3.732;2023-08-07T03:52:51;12.13;;;3.93;;
23072;SDS011;67971;51.046;3.732;2023-08-07T03:55:17;8.83;;;3.50;;
23072;SDS011;67971;51.046;3.732;2023-08-07T03:57:43;9.17;;;3.43;;
23072;SDS011;67971;51.046;3.732;2023-08-07T04:00:09;10.70;;;3.77;;
23072;SDS011;67971;51.046;3.732;2023-08-07T04:02:35;8.07;;;3.67;;
23072;SDS011;67971;51.046;3.732;2023-08-07T04:05:01;8.80;;;3.83;;
23072;SDS011;67971;51.046;3.732;2023-08-07T04:07:27;14.40;;;3.63;;
23072;SDS011;67971;51.046;3.732;2023-08-07T04:09:53;11.53;;;4.63;;
23072;SDS011;67971;51.046;3.732;2023-08-07T04:12:18;7.37;;;3.53;;
23072;SDS011;67971;51.046;3.732;2023-08-07T04:14:44;13.03;;;4.20;;
23072;SDS011;67971;51.046;3.732;2023-08-07T04:17:10;14.80;;;4.33;;
23072;SDS011;67971;51.046;3.732;2023-08-07T04:19:36;12.53;;;4.20;;
23072;SDS011;67971;51.046;3.732;2023-08-07T04:22:02;8.70;;;4.20;;
23072;SDS011;67971;51.046;3.732;2023-08-07T04:24:27;13.17;;;4.13;;
23072;SDS011;67971;51.046;3.732;2023-08-07T04:26:53;7.97;;;3.83;;
23072;SDS011;67971;51.046;3.732;2023-08-07T04:29:19;10.07;;;3.70;;
23072;SDS011;67971;51.046;3.732;2023-08-07T04:31:44;7.97;;;3.90;;
23072;SDS011;67971;51.046;3.732;2023-08-07T04:34:10;10.23;;;4.80;;
23072;SDS011;67971;51.046;3.732;2023-08-07T04:36:37;14.33;;;4.53;;
23072;SDS011;67971;51.046;3.732;2023-08-07T04:39:03;13.30;;;4.03;;
23072;SDS011;67971;51.046;3.732;2023-08-07T04:41:28;15.83;;;4.30;;
23072;SDS011;67971;51.046;3.732;2023-08-07T04:43:54;13.47;;;4.57;;
23072;SDS011;67971;51.046;3.732;2023-08-07T04:46:20;9.97;;;3.93;;
23072;SDS011;67971;51.046;3.732;2023-08-07T04:48:45;12.47;;;4.53;;
23072;SDS011;67971;51.046;3.732;2023-08-07T04:51:12;11.77;;;3.70;;
23072;SDS011;67971;51.046;3.732;2023-08-07T04:53:38;10.73;;;4.27;;
23072;SDS011;67971;51.046;3.732;2023-08-07T04:56:04;9.83;;;4.80;;
23072;SDS011;67971;51.046;3.732;2023-08-07T04:58:29;10.33;;;4.20;;
23072;SDS011;67971;51.046;3.732;2023-08-07T05:00:59;22.37;;;4.53;;
23072;SDS011;67971;51.046;3.732;2023-08-07T05:03:25;18.80;;;4.87;;
23072;SDS011;67971;51.046;3.732;2023-08-07T05:05:59;8.60;;;4.67;;
23072;SDS011;67971;51.046;3.732;2023-08-07T05:08:25;15.33;;;4.63;;
23072;SDS011;67971;51.046;3.732;2023-08-07T05:10:51;13.63;;;4.17;;
23072;SDS011;67971;51.046;3.732;2023-08-07T05:13:17;11.37;;;4.43;;
23072;SDS011;67971;51.046;3.732;2023-08-07T05:15:42;12.97;;;4.70;;
23072;SDS011;67971;51.046;3.732;2023-08-07T05:18:08;13.50;;;4.50;;
23072;SDS011;67971;51.046;3.732;2023-08-07T05:20:33;12.43;;;4.63;;
23072;SDS011;67971;51.046;3.732;2023-08-07T05:22:59;12.07;;;4.40;;
23072;SDS011;67971;51.046;3.732;2023-08-07T05:25:25;15.03;;;4.57;;
23072;SDS011;67971;51.046;3.732;2023-08-07T05:27:51;8.60;;;3.93;;
23072;SDS011;67971;51.046;3.732;2023-08-07T05:30:16;9.13;;;4.33;;
23072;SDS011;67971;51.046;3.732;2023-08-07T05:32:42;10.03;;;4.33;;
23072;SDS011;67971;51.046;3.732;2023-08-07T05:35:08;14.77;;;4.70;;
23072;SDS011;67971;51.046;3.732;2023-08-07T05:37:34;15.00;;;4.27;;
23072;SDS011;67971;51.046;3.732;2023-08-07T05:40:00;9.80;;;4.63;;
23072;SDS011;67971;51.046;3.732;2023-08-07T05:42:26;8.20;;;5.03;;
23072;SDS011;67971;51.046;3.732;2023-08-07T05:44:52;18.40;;;5.40;;
23072;SDS011;67971;51.046;3.732;2023-08-07T05:47:17;15.97;;;5.17;;
23072;SDS011;67971;51.046;3.732;2023-08-07T05:49:44;9.90;;;4.70;;
23072;SDS011;67971;51.046;3.732;2023-08-07T05:52:09;12.60;;;4.87;;
23072;SDS011;67971;51.046;3.732;2023-08-07T05:54:35;20.00;;;5.17;;
23072;SDS011;67971;51.046;3.732;2023-08-07T05:57:01;10.10;;;4.90;;
23072;SDS011;67971;51.046;3.732;2023-08-07T05:59:26;8.07;;;4.33;;
23072;SDS011;67971;51.046;3.732;2023-08-07T06:01:52;12.00;;;4.90;;
23072;SDS011;67971;51.046;3.732;2023-08-07T06:04:18;10.67;;;4.47;;
23072;SDS011;67971;51.046;3.732;2023-08-07T06:06:44;11.17;;;4.90;;
23072;SDS011;67971;51.046;3.732;2023-08-07T06:09:11;9.97;;;4.70;;
23072;SDS011;67971;51.046;3.732;2023-08-07T06:11:37;11.80;;;5.33;;
23072;SDS011;67971;51.046;3.732;2023-08-07T06:14:03;12.27;;;5.20;;
23072;SDS011;67971;51.046;3.732;2023-08-07T06:16:28;11.20;;;5.33;;
23072;SDS011;67971;51.046;3.732;2023-08-07T06:18:54;13.17;;;4.70;;
23072;SDS011;67971;51.046;3.732;2023-08-07T06:21:20;12.33;;;5.77;;
23072;SDS011;67971;51.046;3.732;2023-08-07T06:23:46;13.67;;;4.90;;
23072;SDS011;67971;51.046;3.732;2023-08-07T06:26:12;12.00;;;5.27;;
23072;SDS011;67971;51.046;3.732;2023-08-07T06:28:38;17.23;;;7.03;;
23072;SDS011;67971;51.046;3.732;2023-08-07T06:31:04;15.07;;;5.97;;
23072;SDS011;67971;51.046;3.732;2023-08-07T06:33:31;16.47;;;5.63;;
23072;SDS011;67971;51.046;3.732;2023-08-07T06:35:58;16.00;;;5.70;;
23072;SDS011;67971;51.046;3.732;2023-08-07T06:38:24;16.93;;;6.43;;
23072;SDS011;67971;51.046;3.732;2023-08-07T06:40:50;8.93;;;4.97;;
23072;SDS011;67971;51.046;3.732;2023-08-07T06:43:16;12.93;;;5.60;;
23072;SDS011;67971;51.046;3.732;2023-08-07T06:45:42;13.03;;;5.40;;
23072;SDS011;67971;51.046;3.732;2023-08-07T06:48:08;9.80;;;5.27;;
23072;SDS011;67971;51.046;3.732;2023-08-07T06:50:34;11.63;;;4.60;;
23072;SDS011;67971;51.046;3.732;2023-08-07T06:53:00;10.93;;;4.90;;
23072;SDS011;67971;51.046;3.732;2023-08-07T06:55:25;19.43;;;5.83;;
23072;SDS011;67971;51.046;3.732;2023-08-07T06:57:51;11.47;;;4.93;;
23072;SDS011;67971;51.046;3.732;2023-08-07T07:00:17;17.60;;;5.30;;
23072;SDS011;67971;51.046;3.732;2023-08-07T07:02:43;9.63;;;4.47;;
23072;SDS011;67971;51.046;3.732;2023-08-07T07:05:08;11.63;;;4.30;;
23072;SDS011;67971;51.046;3.732;2023-08-07T07:07:34;13.67;;;4.10;;
23072;SDS011;67971;51.046;3.732;2023-08-07T07:10:00;13.77;;;4.80;;
23072;SDS011;67971;51.046;3.732;2023-08-07T07:12:26;13.17;;;4.37;;
23072;SDS011;67971;51.046;3.732;2023-08-07T07:14:52;10.77;;;4.03;;
23072;SDS011;67971;51.046;3.732;2023-08-07T07:17:18;9.97;;;4.30;;
23072;SDS011;67971;51.046;3.732;2023-08-07T07:19:44;14.33;;;4.20;;
23072;SDS011;67971;51.046;3.732;2023-08-07T07:22:10;12.63;;;4.07;;
23072;SDS011;67971;51.046;3.732;2023-08-07T07:24:35;11.17;;;4.20;;
23072;SDS011;67971;51.046;3.732;2023-08-07T07:27:01;12.27;;;4.60;;
23072;SDS011;67971;51.046;3.732;2023-08-07T07:29:28;12.80;;;4.10;;
23072;SDS011;67971;51.046;3.732;2023-08-07T07:31:53;6.88;;;3.40;;
23072;SDS011;67971;51.046;3.732;2023-08-07T07:34:20;11.20;;;4.15;;
23072;SDS011;67971;51.046;3.732;2023-08-07T07:36:46;9.00;;;3.45;;
23072;SDS011;67971;51.046;3.732;2023-08-07T07:39:11;10.25;;;3.85;;
23072;SDS011;67971;51.046;3.732;2023-08-07T07:41:37;10.68;;;3.75;;
23072;SDS011;67971;51.046;3.732;2023-08-07T07:44:03;13.23;;;3.75;;
23072;SDS011;67971;51.046;3.732;2023-08-07T07:46:28;14.02;;;4.22;;
23072;SDS011;67971;51.046;3.732;2023-08-07T07:48:56;12.02;;;4.28;;
23072;SDS011;67971;51.046;3.732;2023-08-07T07:51:22;11.00;;;3.13;;
23072;SDS011;67971;51.046;3.732;2023-08-07T07:53:48;6.28;;;2.53;;
23072;SDS011;67971;51.046;3.732;2023-08-07T07:56:14;5.75;;;2.92;;
23072;SDS011;67971;51.046;3.732;2023-08-07T07:58:40;8.85;;;2.97;;
23072;SDS011;67971;51.046;3.732;2023-08-07T08:01:06;7.82;;;2.65;;
23072;SDS011;67971;51.046;3.732;2023-08-07T08:03:32;8.82;;;2.67;;
23072;SDS011;67971;51.046;3.732;2023-08-07T08:05:58;8.20;;;2.80;;
23072;SDS011;67971;51.046;3.732;2023-08-07T08:08:24;6.65;;;2.50;;
23072;SDS011;67971;51.046;3.732;2023-08-07T08:10:49;8.20;;;2.63;;
23072;SDS011;67971;51.046;3.732;2023-08-07T08:13:16;5.65;;;2.33;;
23072;SDS011;67971;51.046;3.732;2023-08-07T08:15:42;7.45;;;2.53;;
23072;SDS011;67971;51.046;3.732;2023-08-07T08:18:09;7.13;;;2.10;;
23072;SDS011;67971;51.046;3.732;2023-08-07T08:20:35;5.85;;;2.20;;
23072;SDS011;67971;51.046;3.732;2023-08-07T08:23:01;9.13;;;2.63;;
23072;SDS011;67971;51.046;3.732;2023-08-07T08:25:26;8.95;;;2.20;;
23072;SDS011;67971;51.046;3.732;2023-08-07T08:27:52;3.55;;;1.95;;
23072;SDS011;67971;51.046;3.732;2023-08-07T08:30:18;4.97;;;2.08;;
23072;SDS011;67971;51.046;3.732;2023-08-07T08:32:43;6.18;;;2.30;;
23072;SDS011;67971;51.046;3.732;2023-08-07T08:35:12;3.72;;;1.83;;
23072;SDS011;67971;51.046;3.732;2023-08-07T08:37:38;10.15;;;2.03;;
23072;SDS011;67971;51.046;3.732;2023-08-07T08:40:03;7.63;;;2.53;;
23072;SDS011;67971;51.046;3.732;2023-08-07T08:42:31;3.30;;;1.98;;
23072;SDS011;67971;51.046;3.732;2023-08-07T08:44:57;7.93;;;2.60;;
23072;SDS011;67971;51.046;3.732;2023-08-07T08:47:25;9.40;;;2.92;;
23072;SDS011;67971;51.046;3.732;2023-08-07T08:49:57;9.18;;;2.47;;
23072;SDS011;67971;51.046;3.732;2023-08-07T08:52:43;6.90;;;2.10;;
23072;SDS011;67971;51.046;3.732;2023-08-07T08:55:10;10.52;;;2.03;;
23072;SDS011;67971;51.046;3.732;2023-08-07T08:57:37;2.65;;;2.05;;
23072;SDS011;67971;51.046;3.732;2023-08-07T09:00:04;3.10;;;1.65;;
23072;SDS011;67971;51.046;3.732;2023-08-07T09:02:45;6.57;;;1.45;;
23072;SDS011;67971;51.046;3.732;2023-08-07T09:05:13;6.20;;;1.95;;
23072;SDS011;67971;51.046;3.732;2023-08-07T09:07:40;6.38;;;2.08;;
23072;SDS011;67971;51.046;3.732;2023-08-07T09:10:06;6.30;;;1.80;;
23072;SDS011;67971;51.046;3.732;2023-08-07T09:12:32;8.52;;;2.17;;
23072;SDS011;67971;51.046;3.732;2023-08-07T09:14:58;5.18;;;1.88;;
23072;SDS011;67971;51.046;3.732;2023-08-07T09:17:29;3.35;;;1.85;;
23072;SDS011;67971;51.046;3.732;2023-08-07T09:19:58;7.95;;;2.78;;
23072;SDS011;67971;51.046;3.732;2023-08-07T09:22:24;3.78;;;2.20;;
23072;SDS011;67971;51.046;3.732;2023-08-07T09:24:49;10.32;;;2.00;;
23072;SDS011;67971;51.046;3.732;2023-08-07T09:27:15;2.83;;;1.95;;
23072;SDS011;67971;51.046;3.732;2023-08-07T09:29:43;6.32;;;2.28;;
23072;SDS011;67971;51.046;3.732;2023-08-07T09:32:11;6.38;;;2.45;;
23072;SDS011;67971;51.046;3.732;2023-08-07T09:34:40;11.27;;;2.42;;
23072;SDS011;67971;51.046;3.732;2023-08-07T09:37:07;3.35;;;1.80;;
23072;SDS011;67971;51.046;3.732;2023-08-07T09:39:33;7.40;;;2.42;;
23072;SDS011;67971;51.046;3.732;2023-08-07T09:42:03;9.52;;;2.15;;
23072;SDS011;67971;51.046;3.732;2023-08-07T09:44:35;3.40;;;2.30;;
23072;SDS011;67971;51.046;3.732;2023-08-07T09:47:11;4.45;;;2.20;;
23072;SDS011;67971;51.046;3.732;2023-08-07T09:49:41;5.63;;;1.95;;
23072;SDS011;67971;51.046;3.732;2023-08-07T09:52:07;9.60;;;2.10;;
23072;SDS011;67971;51.046;3.732;2023-08-07T09:54:35;4.90;;;1.77;;
23072;SDS011;67971;51.046;3.732;2023-08-07T09:57:01;4.13;;;2.17;;
23072;SDS011;67971;51.046;3.732;2023-08-07T09:59:28;3.38;;;1.92;;
23072;SDS011;67971;51.046;3.732;2023-08-07T10:01:57;4.38;;;2.03;;
23072;SDS011;67971;51.046;3.732;2023-08-07T10:04:28;4.75;;;2.10;;
23072;SDS011;67971;51.046;3.732;2023-08-07T10:06:54;4.70;;;2.03;;
23072;SDS011;67971;51.046;3.732;2023-08-07T10:09:20;9.38;;;2.78;;
23072;SDS011;67971;51.046;3.732;2023-08-07T10:11:47;4.70;;;2.20;;
23072;SDS011;67971;51.046;3.732;2023-08-07T10:14:14;16.88;;;3.38;;
23072;SDS011;67971;51.046;3.732;2023-08-07T10:16:41;4.93;;;2.28;;
23072;SDS011;67971;51.046;3.732;2023-08-07T10:19:10;4.80;;;2.15;;
23072;SDS011;67971;51.046;3.732;2023-08-07T10:21:37;8.52;;;2.03;;
23072;SDS011;67971;51.046;3.732;2023-08-07T10:24:04;5.40;;;2.00;;
23072;SDS011;67971;51.046;3.732;2023-08-07T10:26:32;6.93;;;2.40;;
23072;SDS011;67971;51.046;3.732;2023-08-07T10:29:00;5.25;;;2.08;;
23072;SDS011;67971;51.046;3.732;2023-08-07T10:31:29;3.75;;;1.80;;
23072;SDS011;67971;51.046;3.732;2023-08-07T10:33:56;3.15;;;1.90;;
23072;SDS011;67971;51.046;3.732;2023-08-07T10:36:22;4.95;;;2.15;;
23072;SDS011;67971;51.046;3.732;2023-08-07T10:38:51;2.15;;;1.48;;
23072;SDS011;67971;51.046;3.732;2023-08-07T10:41:38;3.90;;;2.00;;
23072;SDS011;67971;51.046;3.732;2023-08-07T10:44:08;4.60;;;1.77;;
23072;SDS011;67971;51.046;3.732;2023-08-07T10:46:49;7.32;;;2.05;;
23072;SDS011;67971;51.046;3.732;2023-08-07T10:54:46;5.35;;;2.22;;
23072;SDS011;67971;51.046;3.732;2023-08-07T10:57:15;3.55;;;1.70;;
23072;SDS011;67971;51.046;3.732;2023-08-07T11:02:26;4.82;;;2.15;;
23072;SDS011;67971;51.046;3.732;2023-08-07T11:04:54;3.47;;;2.22;;
23072;SDS011;67971;51.046;3.732;2023-08-07T11:07:24;8.27;;;2.58;;
23072;SDS011;67971;51.046;3.732;2023-08-07T11:09:51;3.28;;;1.90;;
23072;SDS011;67971;51.046;3.732;2023-08-07T11:12:17;5.43;;;2.22;;
23072;SDS011;67971;51.046;3.732;2023-08-07T11:14:43;3.72;;;2.30;;
23072;SDS011;67971;51.046;3.732;2023-08-07T11:17:09;3.92;;;2.10;;
23072;SDS011;67971;51.046;3.732;2023-08-07T11:19:35;6.13;;;2.00;;
23072;SDS011;67971;51.046;3.732;2023-08-07T11:22:01;6.78;;;2.03;;
23072;SDS011;67971;51.046;3.732;2023-08-07T11:24:27;3.92;;;1.50;;
23072;SDS011;67971;51.046;3.732;2023-08-07T11:26:53;2.35;;;1.58;;
23072;SDS011;67971;51.046;3.732;2023-08-07T11:29:21;2.65;;;1.58;;
23072;SDS011;67971;51.046;3.732;2023-08-07T11:31:49;6.82;;;2.10;;
23072;SDS011;67971;51.046;3.732;2023-08-07T11:34:19;4.25;;;1.80;;
23072;SDS011;67971;51.046;3.732;2023-08-07T11:36:46;6.07;;;2.13;;
23072;SDS011;67971;51.046;3.732;2023-08-07T11:39:12;3.80;;;1.55;;
23072;SDS011;67971;51.046;3.732;2023-08-07T11:41:39;5.70;;;1.35;;
23072;SDS011;67971;51.046;3.732;2023-08-07T11:44:22;4.93;;;1.98;;
23072;SDS011;67971;51.046;3.732;2023-08-07T11:46:50;3.05;;;1.70;;
23072;SDS011;67971;51.046;3.732;2023-08-07T11:49:18;1.33;;;1.10;;
23072;SDS011;67971;51.046;3.732;2023-08-07T11:51:44;2.95;;;1.65;;
23072;SDS011;67971;51.046;3.732;2023-08-07T11:54:13;1.70;;;1.50;;
23072;SDS011;67971;51.046;3.732;2023-08-07T11:56:40;8.38;;;1.75;;
23072;SDS011;67971;51.046;3.732;2023-08-07T11:59:09;9.38;;;2.05;;
23072;SDS011;67971;51.046;3.732;2023-08-07T12:01:43;7.18;;;1.77;;
23072;SDS011;67971;51.046;3.732;2023-08-07T12:04:10;3.47;;;1.30;;
23072;SDS011;67971;51.046;3.732;2023-08-07T12:06:36;5.68;;;1.77;;
23072;SDS011;67971;51.046;3.732;2023-08-07T12:09:05;6.07;;;1.30;;
23072;SDS011;67971;51.046;3.732;2023-08-07T12:11:37;80.57;;;9.88;;
23072;SDS011;67971;51.046;3.732;2023-08-07T12:14:03;5.47;;;1.45;;
23072;SDS011;67971;51.046;3.732;2023-08-07T12:16:33;5.03;;;1.30;;
23072;SDS011;67971;51.046;3.732;2023-08-07T12:19:01;5.80;;;1.40;;
23072;SDS011;67971;51.046;3.732;2023-08-07T12:21:29;5.90;;;1.52;;
23072;SDS011;67971;51.046;3.732;2023-08-07T12:23:57;5.10;;;1.80;;
23072;SDS011;67971;51.046;3.732;2023-08-07T12:26:24;8.60;;;1.65;;
23072;SDS011;67971;51.046;3.732;2023-08-07T12:28:49;2.67;;;1.20;;
23072;SDS011;67971;51.046;3.732;2023-08-07T12:31:15;4.28;;;1.48;;
23072;SDS011;67971;51.046;3.732;2023-08-07T12:33:42;6.25;;;1.30;;
23072;SDS011;67971;51.046;3.732;2023-08-07T12:36:08;7.93;;;1.48;;
23072;SDS011;67971;51.046;3.732;2023-08-07T12:38:35;3.78;;;1.20;;
23072;SDS011;67971;51.046;3.732;2023-08-07T12:41:01;8.70;;;1.55;;
23072;SDS011;67971;51.046;3.732;2023-08-07T12:43:28;4.25;;;1.38;;
23072;SDS011;67971;51.046;3.732;2023-08-07T12:45:54;5.13;;;1.30;;
23072;SDS011;67971;51.046;3.732;2023-08-07T12:48:19;8.50;;;1.30;;
23072;SDS011;67971;51.046;3.732;2023-08-07T12:50:45;7.18;;;1.48;;
23072;SDS011;67971;51.046;3.732;2023-08-07T12:53:11;8.02;;;1.80;;
23072;SDS011;67971;51.046;3.732;2023-08-07T12:55:36;6.07;;;1.45;;
23072;SDS011;67971;51.046;3.732;2023-08-07T12:58:02;6.65;;;1.30;;
23072;SDS011;67971;51.046;3.732;2023-08-07T13:00:28;2.83;;;1.40;;
23072;SDS011;67971;51.046;3.732;2023-08-07T13:02:53;5.50;;;1.55;;
23072;SDS011;67971;51.046;3.732;2023-08-07T13:05:21;8.65;;;1.23;;
23072;SDS011;67971;51.046;3.732;2023-08-07T13:07:47;4.00;;;1.77;;
23072;SDS011;67971;51.046;3.732;2023-08-07T13:10:16;5.15;;;1.45;;
23072;SDS011;67971;51.046;3.732;2023-08-07T13:12:43;3.38;;;1.17;;
23072;SDS011;67971;51.046;3.732;2023-08-07T13:15:12;2.30;;;1.20;;
23072;SDS011;67971;51.046;3.732;2023-08-07T13:17:39;6.07;;;1.70;;
23072;SDS011;67971;51.046;3.732;2023-08-07T13:20:05;1.75;;;1.48;;
23072;SDS011;67971;51.046;3.732;2023-08-07T13:22:33;2.38;;;1.10;;
23072;SDS011;67971;51.046;3.732;2023-08-07T13:25:02;19.27;;;3.28;;
23072;SDS011;67971;51.046;3.732;2023-08-07T13:27:29;13.50;;;3.10;;
23072;SDS011;67971;51.046;3.732;2023-08-07T13:29:55;9.27;;;1.50;;
23072;SDS011;67971;51.046;3.732;2023-08-07T13:32:21;4.20;;;1.20;;
23072;SDS011;67971;51.046;3.732;2023-08-07T13:34:47;6.32;;;1.20;;
23072;SDS011;67971;51.046;3.732;2023-08-07T13:37:13;7.45;;;2.22;;
23072;SDS011;67971;51.046;3.732;2023-08-07T13:39:39;5.93;;;1.42;;
23072;SDS011;67971;51.046;3.732;2023-08-07T13:42:05;5.25;;;1.52;;
23072;SDS011;67971;51.046;3.732;2023-08-07T13:44:31;7.25;;;1.58;;
23072;SDS011;67971;51.046;3.732;2023-08-07T13:46:57;3.13;;;1.00;;
23072;SDS011;67971;51.046;3.732;2023-08-07T13:49:22;6.65;;;1.30;;
23072;SDS011;67971;51.046;3.732;2023-08-07T13:51:48;1.83;;;1.10;;
23072;SDS011;67971;51.046;3.732;2023-08-07T13:54:15;3.30;;;1.20;;
23072;SDS011;67971;51.046;3.732;2023-08-07T13:56:40;4.70;;;1.70;;
23072;SDS011;67971;51.046;3.732;2023-08-07T13:59:06;5.93;;;1.20;;
23072;SDS011;67971;51.046;3.732;2023-08-07T14:01:32;2.65;;;1.05;;
23072;SDS011;67971;51.046;3.732;2023-08-07T14:04:00;3.03;;;1.20;;
23072;SDS011;67971;51.046;3.732;2023-08-07T14:06:28;3.40;;;1.35;;
23072;SDS011;67971;51.046;3.732;2023-08-07T14:08:55;5.38;;;1.10;;
23072;SDS011;67971;51.046;3.732;2023-08-07T14:11:21;6.57;;;1.10;;
23072;SDS011;67971;51.046;3.732;2023-08-07T14:13:49;8.52;;;1.60;;
23072;SDS011;67971;51.046;3.732;2023-08-07T14:16:15;1.33;;;0.93;;
23072;SDS011;67971;51.046;3.732;2023-08-07T14:18:40;1.90;;;1.30;;
23072;SDS011;67971;51.046;3.732;2023-08-07T14:21:06;5.30;;;1.30;;
23072;SDS011;67971;51.046;3.732;2023-08-07T14:23:32;2.28;;;1.25;;
23072;SDS011;67971;51.046;3.732;2023-08-07T14:25:57;3.63;;;1.35;;
23072;SDS011;67971;51.046;3.732;2023-08-07T14:28:23;4.85;;;1.40;;
23072;SDS011;67971;51.046;3.732;2023-08-07T14:30:49;3.30;;;1.20;;
23072;SDS011;67971;51.046;3.732;2023-08-07T14:33:14;3.13;;;1.35;;
23072;SDS011;67971;51.046;3.732;2023-08-07T14:35:40;4.72;;;1.45;;
23072;SDS011;67971;51.046;3.732;2023-08-07T14:38:06;5.35;;;1.60;;
23072;SDS011;67971;51.046;3.732;2023-08-07T14:40:31;7.25;;;1.60;;
23072;SDS011;67971;51.046;3.732;2023-08-07T14:42:57;9.13;;;1.60;;
23072;SDS011;67971;51.046;3.732;2023-08-07T14:45:23;2.38;;;1.50;;
23072;SDS011;67971;51.046;3.732;2023-08-07T14:47:51;2.13;;;1.45;;
23072;SDS011;67971;51.046;3.732;2023-08-07T14:50:16;2.83;;;1.95;;
23072;SDS011;67971;51.046;3.732;2023-08-07T14:52:42;2.92;;;1.30;;